Flight Track Log - Related Links

Times and Time Zones

All times are in EDT time to prevent confusion due to time zone crossing. See the SWA1258 flight status page for this flight to view local times or setup timezone preferences in your user account.

Time Position Orientation Groundspeed Altitude Reporting Facility
EDT Latitude Longitude Course Direction KTS MPH feet Rate Location/Type
Fri 03:56:10 PM 39.1000 -76.6167 153° Southeast 206 237 3,300  Level Potomac TRACON
Fri 03:57:10 PM 39.0500 -76.5667 142° Southeast 256 295 6,000 3,200 Climbing Potomac TRACON
Fri 03:58:10 PM 38.9833 -76.5167 150° Southeast 266 306 9,700 2,950 Climbing Potomac TRACON
Fri 03:59:10 PM 38.9167 -76.4667 150° Southeast 316 364 11,900 1,681 Climbing Potomac TRACON
Fri 04:01:37 PM 38.7172 -76.6239 212° Southwest 383 441 15,500 1,768 Climbing Washington Center
Fri 04:02:37 PM 38.6269 -76.6944 211° Southwest 383 441 18,000 1,881 Climbing Washington Center
Fri 04:03:35 PM 38.5203 -76.7275 194° South 383 441 19,200 1,881 Climbing Washington Center
Fri 04:04:35 PM 38.4100 -76.7097 173° South 386 444 21,700 2,479 Climbing Washington Center
Fri 04:05:36 PM 38.2808 -76.6867 172° South 397 457 24,200 2,132 Climbing Washington Center
Fri 04:06:36 PM 38.1600 -76.6719 175° South 424 488 26,000 893 Climbing Washington Center
Fri 04:07:37 PM 38.0392 -76.6569 174° South 435 501 26,000 814 Level Washington Center
Fri 04:08:34 PM 37.9164 -76.6394 174° South 441 507 27,600 1,627 Climbing Washington Center
Fri 04:09:35 PM 37.7892 -76.6219 174° South 448 516 29,200 1,525 Climbing Washington Center
Fri 04:10:36 PM 37.6600 -76.6069 175° South 461 531 30,700 1,721 Climbing Washington Center
Fri 04:11:37 PM 37.5308 -76.5897 174° South 466 536 32,700 1,650 Climbing Washington Center
Fri 04:12:36 PM 37.4017 -76.5722 174° South 466 536 34,000 1,450 Climbing Washington Center
Fri 04:13:37 PM 37.2783 -76.5967 189° South 445 512 35,600 1,664 Climbing Washington Center
Fri 04:14:35 PM 37.1592 -76.6342 194° South 445 512 37,300 1,220 Climbing Washington Center
Fri 04:15:35 PM 37.0419 -76.6744 195° South 445 512 38,000 344 Climbing Washington Center
Fri 04:16:37 PM 36.9247 -76.7117 194° South 445 512 38,000  Level Washington Center
Fri 04:17:37 PM 36.8078 -76.7514 195° South 440 506 38,000  Level Washington Center
Fri 04:18:35 PM 36.7133 -76.7839 195° South 440 506 38,000  Level Washington Center
Fri 04:19:36 PM 36.5753 -76.8308 195° South 434 499 38,000  Level Washington Center
Fri 04:20:36 PM 36.4622 -76.8728 197° South 434 499 38,000  Level Washington Center
Fri 04:21:36 PM 36.3553 -76.9072 195° South 434 499 38,000  Level Washington Center
Fri 04:22:37 PM 36.2381 -76.9492 196° South 439 505 38,000  Level Washington Center
Fri 04:23:37 PM 36.1231 -76.9858 194° South 439 505 38,000  Level Washington Center
Fri 04:24:36 PM 36.0036 -77.0247 195° South 439 505 38,000  Level Washington Center
Fri 04:25:36 PM 35.8883 -77.0636 195° South 439 505 38,000  Level Washington Center
Fri 04:26:37 PM 35.7689 -77.1025 195° South 439 505 38,000  Level Washington Center
Fri 04:27:37 PM 35.6558 -77.1386 195° South 432 497 38,000  Level Washington Center
Fri 04:28:35 PM 35.5383 -77.1747 194° South 432 497 38,000  Level Washington Center
Fri 04:29:35 PM 35.4231 -77.2131 195° South 432 497 38,000  Level Washington Center
Fri 04:30:36 PM 35.3119 -77.2517 196° South 432 497 38,000  Level Washington Center
Fri 04:31:35 PM 35.2008 -77.2875 195° South 432 497 38,000  Level Washington Center
Fri 04:32:35 PM 35.0878 -77.3258 196° South 425 489 38,000  Level Washington Center
Fri 04:33:35 PM 34.9767 -77.3564 193° South 420 483 38,000  Level Washington Center
Fri 04:34:36 PM 34.8633 -77.3944 195° South 420 483 38,000  Level Washington Center
Fri 04:35:36 PM 34.7564 -77.4350 197° South 420 483 38,000  Level Washington Center
Fri 04:36:37 PM 34.6433 -77.4703 194° South 420 483 38,000  Level Washington Center
Fri 04:37:37 PM 34.5300 -77.5056 194° South 420 483 38,000  Level Washington Center
Fri 04:38:35 PM 34.4167 -77.5431 195° South 420 483 38,000  Level Washington Center
Fri 04:39:35 PM 34.3036 -77.5781 194° South 420 483 38,000  Level Washington Center
Fri 04:41:32 PM 34.0656 -77.6511 194° South 418 481 38,000  Level Jacksonville Center
Fri 04:42:32 PM 33.9503 -77.6881 195° South 428 493 38,000  Level Jacksonville Center
Fri 04:43:32 PM 33.8328 -77.7250 195° South 428 493 38,000  Level Jacksonville Center
Fri 04:44:32 PM 33.7194 -77.7617 195° South 428 493 38,000  Level Jacksonville Center
Fri 04:45:32 PM 33.6083 -77.7956 194° South 428 493 38,000  Level Jacksonville Center
Fri 04:46:32 PM 33.4928 -77.8319 195° South 428 493 38,000  Level Jacksonville Center
Fri 04:47:32 PM 33.3794 -77.8658 194° South 428 493 38,000 650 Level Jacksonville Center
Fri 04:48:32 PM 33.2703 -77.9019 195° South 428 493 39,300 900 Climbing Jacksonville Center
Fri 04:49:32 PM 33.1589 -77.9353 194° South 423 487 39,800 350 Climbing Jacksonville Center
Fri 04:50:32 PM 33.0456 -77.9689 194° South 423 487 40,000 100 Climbing Jacksonville Center
Fri 04:51:32 PM 32.9319 -78.0022 194° South 423 487 40,000  Level Jacksonville Center
Fri 04:52:32 PM 32.8186 -78.0381 195° South 423 487 40,000  Level Jacksonville Center
Fri 04:53:32 PM 32.7072 -78.0714 194° South 423 487 40,000  Level Jacksonville Center
Fri 04:54:32 PM 32.5958 -78.1067 195° South 423 487 40,000  Level Jacksonville Center
Fri 04:55:32 PM 32.4864 -78.1372 193° South 412 474 40,000  Level Jacksonville Center
Fri 04:56:32 PM 32.3769 -78.1700 194° South 412 474 40,000  Level Jacksonville Center
Fri 04:57:32 PM 32.2675 -78.2003 193° South 412 474 40,000  Level Jacksonville Center
Fri 04:58:32 PM 32.1581 -78.2328 194° South 412 474 40,000  Level Jacksonville Center
Fri 04:59:32 PM 32.0614 -78.2744 200° South 412 474 40,000  Level Jacksonville Center
Fri 05:00:32 PM 31.9539 -78.3042 193° South 412 474 40,000  Level Jacksonville Center
Fri 05:01:32 PM 31.8406 -78.3417 196° South 412 474 40,000  Level Jacksonville Center
Fri 05:02:32 PM 31.7311 -78.3717 193° South 412 474 40,000  Level Jacksonville Center
Fri 05:03:32 PM 31.6214 -78.4036 194° South 412 474 40,000  Level Jacksonville Center
Fri 05:04:32 PM 31.5081 -78.4383 195° South 418 481 40,000  Level Jacksonville Center
Fri 05:05:32 PM 31.3944 -78.4731 195° South 418 481 40,000  Level Jacksonville Center
Fri 05:06:32 PM 31.2808 -78.5075 195° South 418 481 40,000  Level Jacksonville Center
Fri 05:07:32 PM 31.1669 -78.5394 193° South 423 487 40,000  Level Jacksonville Center
Fri 05:08:32 PM 31.0533 -78.5714 194° South 429 494 40,000  Level Jacksonville Center
Fri 05:09:32 PM 30.9356 -78.6058 194° South 429 494 40,000  Level Jacksonville Center
Fri 05:10:32 PM 30.8217 -78.6400 194° South 429 494 40,000  Level Jacksonville Center
Fri 05:11:32 PM 30.7061 -78.6744 194° South 429 494 40,000  Level Jacksonville Center
Fri 05:12:58 PM 30.5433 -78.7217 194° South 406 467 40,000  Level Miami Center
Fri 05:13:58 PM 30.4344 -78.7536 194° South 417 480 40,000  Level Miami Center
Fri 05:14:58 PM 30.3172 -78.7875 194° South 428 493 40,000  Level Miami Center
Fri 05:15:58 PM 30.1961 -78.8214 194° South 433 498 40,000  Level Miami Center
Fri 05:16:58 PM 30.0872 -78.8528 194° South 421 484 40,000  Level Miami Center
Fri 05:17:58 PM 29.9781 -78.8964 199° South 416 479 40,000  Level Miami Center
Fri 05:18:58 PM 29.8608 -78.9253 192° South 421 484 40,000  Level Miami Center
Fri 05:19:58 PM 29.7478 -78.9564 193° South 421 484 40,000  Level Miami Center
Fri 05:20:58 PM 29.6328 -78.9878 193° South 421 484 40,000  Level Miami Center
Fri 05:21:58 PM 29.5175 -79.0211 194° South 421 484 40,000  Level Miami Center
Fri 05:22:58 PM 29.4086 -79.0547 195° South 421 484 40,000 -250 Level Miami Center
Fri 05:23:58 PM 29.2872 -79.0833 192° South 421 484 39,500 -700 Descending Miami Center
Fri 05:24:58 PM 29.1742 -79.1094 191° South 421 484 38,600 -950 Descending Miami Center
Fri 05:25:58 PM 29.0611 -79.1333 190° South 421 484 37,600 -950 Descending Miami Center
Fri 05:26:58 PM 28.9397 -79.1544 189° South 433 498 36,700 -900 Descending Miami Center
Fri 05:27:58 PM 28.8183 -79.1781 190° South 438 504 35,800 -950 Descending Miami Center
Fri 05:28:58 PM 28.6969 -79.1969 188° South 438 504 34,800 -950 Descending Miami Center
Fri 05:29:58 PM 28.5756 -79.2203 190° South 443 510 33,900 -950 Descending Miami Center
Fri 05:30:58 PM 28.4519 -79.2414 189° South 448 516 32,900 -950 Descending Miami Center
Fri 05:31:58 PM 28.3306 -79.2625 189° South 448 516 32,000 -950 Descending Miami Center
Fri 05:32:58 PM 28.2050 -79.2881 190° South 448 516 31,000 -1,000 Descending Miami Center
Fri 05:33:58 PM 28.0869 -79.3442 203° Southwest 448 516 30,000 -1,500 Descending Miami Center
Fri 05:34:58 PM 27.9775 -79.4053 206° Southwest 454 522 28,000 -2,500 Descending Miami Center
Fri 05:35:58 PM 27.8572 -79.4756 207° Southwest 449 517 25,000 -2,800 Descending Miami Center
Fri 05:36:58 PM 27.7603 -79.5294 206° Southwest 435 501 22,400 -2,600 Descending Miami Center
Fri 05:37:58 PM 27.6567 -79.5881 207° Southwest 435 501 19,800 -2,850 Descending Miami Center
Fri 05:38:58 PM 27.5469 -79.6489 206° Southwest 410 472 16,700 -2,750 Descending Miami Center
Fri 05:39:58 PM 27.4500 -79.7025 206° Southwest 396 456 14,300 -2,400 Descending Miami Center
Fri 05:40:58 PM 27.3592 -79.7542 207° Southwest 386 444 11,900 -2,350 Descending Miami Center
Fri 05:41:58 PM 27.2789 -79.8011 207° Southwest 367 422 9,600 -1,850 Descending Miami Center
Fri 05:42:58 PM 27.1839 -79.8547 207° Southwest 351 404 8,200 -850 Descending Miami Center
Fri 05:43:58 PM 27.1097 -79.8950 206° Southwest 318 366 7,900 -850 Descending Miami Center
Fri 05:44:58 PM 27.0422 -79.9328 206° Southwest 293 337 6,500 -1,400 Descending Miami Center
Fri 05:45:58 PM 26.9808 -79.9683 207° Southwest 283 326 5,100 -1,250 Descending Miami Center
Fri 05:46:58 PM 26.9194 -80.0158 215° Southwest 273 314 4,000 -550 Descending Miami Center
Fri 05:47:58 PM 26.8556 -80.0675 216° Southwest 267 307 4,000  Level Miami Center
Fri 05:48:58 PM 26.8061 -80.1244 226° Southwest 262 302 4,000  Level Miami Center
Fri 05:50:00 PM 26.7933 -80.2518 264° West  Level FlightAware Approximate
Fri 05:57:00 PM 26.6832 -80.0956 110° East  Level Estimated
Fri 05:58:00 PM 26.6832 -80.0956 110° East  Level Estimated
Fri 05:59:00 PM 26.6832 -80.0956 110° East  Level Estimated
Fri 06:00:00 PM 26.6832 -80.0956 110° East  Level Estimated
Fri 06:01:00 PM 26.6832 -80.0956 110° East  Level Estimated
Fri 06:02:00 PM 26.6832 -80.0956 110° East  Level Estimated

Login

Don't have an account? Register now (free) for customized features, flight alerts, and more!